createdAt,value
2019-05-15T00:00:03.272Z,4.6155
2019-05-15T00:00:14.307Z,4.7366
2019-05-15T00:00:23.259Z,3.9861
2019-05-15T00:00:34.283Z,3.4857
2019-05-15T00:00:43.262Z,2.9510
2019-05-15T00:00:54.257Z,2.4145
2019-05-15T00:01:03.288Z,2.3847
2019-05-15T00:01:14.283Z,3.2602
2019-05-15T00:01:23.264Z,4.0701
2019-05-15T00:01:34.259Z,3.7171
2019-05-15T00:01:43.285Z,4.0376
2019-05-15T00:01:54.272Z,3.5919
2019-05-15T00:02:03.271Z,3.8327
2019-05-15T00:02:13.693Z,3.7649
2019-05-15T00:02:23.283Z,3.8454
2019-05-15T00:02:34.256Z,3.5935
2019-05-15T00:02:48.737Z,4.0839
2019-05-15T00:02:53.536Z,4.5286
2019-05-15T00:03:03.274Z,3.9682
2019-05-15T00:03:15.098Z,3.5221
2019-05-15T00:03:23.250Z,3.1980
2019-05-15T00:03:34.275Z,2.8679
2019-05-15T00:03:45.270Z,3.7754
2019-05-15T00:03:55.196Z,3.2014
2019-05-15T00:04:05.270Z,3.2761
2019-05-15T00:04:13.278Z,3.3348
2019-05-15T00:04:24.287Z,3.6449
2019-05-15T00:04:33.255Z,2.9313
2019-05-15T00:04:44.257Z,2.9654
2019-05-15T00:04:53.263Z,3.0003
2019-05-15T00:05:08.966Z,3.2394
2019-05-15T00:05:13.271Z,3.1534
2019-05-15T00:05:24.261Z,2.8530
2019-05-15T00:05:33.277Z,2.1235
2019-05-15T00:05:44.271Z,1.9549
2019-05-15T00:05:53.266Z,2.7476
2019-05-15T00:06:04.272Z,2.9852
2019-05-15T00:06:13.266Z,2.7348
2019-05-15T00:06:24.250Z,3.0102
2019-05-15T00:06:33.271Z,2.9784
2019-05-15T00:06:44.267Z,2.7971
2019-05-15T00:06:53.272Z,3.7874
2019-05-15T00:07:04.271Z,3.0261
2019-05-15T00:07:13.254Z,3.1944
2019-05-15T00:07:23.281Z,2.7178
2019-05-15T00:07:33.273Z,2.8842
2019-05-15T00:07:43.106Z,3.4157
2019-05-15T00:07:53.276Z,4.0044
2019-05-15T00:08:04.168Z,4.0801
2019-05-15T00:08:14.994Z,3.4329
2019-05-15T00:08:28.796Z,4.2544
2019-05-15T00:08:33.268Z,4.5178
2019-05-15T00:08:43.270Z,4.5664
2019-05-15T00:08:55.272Z,4.0106
2019-05-15T00:09:03.275Z,4.1507
2019-05-15T00:09:14.264Z,4.2486
2019-05-15T00:09:23.263Z,4.6779
2019-05-15T00:09:34.275Z,3.8945
2019-05-15T00:09:43.254Z,3.1793
2019-05-15T00:09:54.253Z,3.2029
2019-05-15T00:10:03.280Z,3.5427
2019-05-15T00:10:14.280Z,2.8340
2019-05-15T00:10:23.263Z,2.4987
2019-05-15T00:10:34.266Z,2.9304
2019-05-15T00:10:43.255Z,3.1154
2019-05-15T00:10:54.356Z,3.0639
2019-05-15T00:11:03.272Z,3.6673
2019-05-15T00:11:14.277Z,3.7795
2019-05-15T00:11:24.270Z,3.1958
2019-05-15T00:11:34.278Z,2.3148
2019-05-15T00:11:45.267Z,2.9138
2019-05-15T00:11:54.262Z,2.4508
2019-05-15T00:12:08.436Z,2.2120
2019-05-15T00:12:13.243Z,2.5308
2019-05-15T00:12:24.256Z,4.1077
2019-05-15T00:12:33.281Z,4.1163
2019-05-15T00:12:44.251Z,3.5804
2019-05-15T00:12:53.263Z,2.4128
2019-05-15T00:13:04.263Z,2.2828
2019-05-15T00:13:13.289Z,2.9498
2019-05-15T00:13:24.264Z,2.8427
2019-05-15T00:13:33.278Z,3.1863
2019-05-15T00:13:44.260Z,2.5222
2019-05-15T00:13:53.277Z,1.8573
2019-05-15T00:14:04.262Z,1.8509
2019-05-15T00:14:13.265Z,2.2717
2019-05-15T00:14:23.271Z,3.5688
2019-05-15T00:14:33.265Z,4.0550
2019-05-15T00:14:44.267Z,3.2353
2019-05-15T00:14:54.171Z,2.9783
2019-05-15T00:15:04.303Z,2.8586
2019-05-15T00:15:13.296Z,2.5524
2019-05-15T00:15:25.202Z,2.7361
2019-05-15T00:15:35.274Z,3.0407
2019-05-15T00:15:44.263Z,3.2442
2019-05-15T00:15:56.133Z,2.7402
2019-05-15T00:16:03.276Z,2.9904
2019-05-15T00:16:14.278Z,3.4583
2019-05-15T00:16:23.277Z,4.1329
2019-05-15T00:16:34.271Z,4.1466
2019-05-15T00:16:43.279Z,3.9317
2019-05-15T00:16:54.265Z,3.1494
2019-05-15T00:17:03.259Z,2.9034
2019-05-15T00:17:14.264Z,2.6445
2019-05-15T00:17:23.294Z,3.0979
2019-05-15T00:17:34.264Z,3.2121
2019-05-15T00:17:43.252Z,3.6149
2019-05-15T00:17:54.272Z,3.8525
2019-05-15T00:18:03.342Z,4.3929
2019-05-15T00:18:14.264Z,4.7246
2019-05-15T00:18:23.247Z,4.5221
2019-05-15T00:18:34.286Z,3.2859
2019-05-15T00:18:45.280Z,2.4618
2019-05-15T00:18:53.384Z,1.9735
2019-05-15T00:19:03.246Z,1.8092
2019-05-15T00:19:15.227Z,2.0685
2019-05-15T00:19:23.259Z,2.7532
2019-05-15T00:19:34.243Z,2.5912
2019-05-15T00:19:48.457Z,3.5304
2019-05-15T00:19:53.266Z,3.2193
2019-05-15T00:20:03.250Z,2.4698
2019-05-15T00:20:13.305Z,2.6748
2019-05-15T00:20:24.269Z,2.8675
2019-05-15T00:20:35.756Z,2.5485
2019-05-15T00:20:44.290Z,2.9381
2019-05-15T00:20:53.278Z,2.8138
2019-05-15T00:21:04.264Z,2.6345
2019-05-15T00:21:13.263Z,2.7337
2019-05-15T00:21:24.253Z,2.2704
2019-05-15T00:21:33.269Z,2.8339
2019-05-15T00:21:44.263Z,2.6550
2019-05-15T00:21:52.674Z,2.0800
2019-05-15T00:22:04.262Z,2.0724
2019-05-15T00:22:13.273Z,2.3171
2019-05-15T00:22:25.794Z,3.2433
2019-05-15T00:22:35.266Z,3.1414
2019-05-15T00:22:44.288Z,3.3411
2019-05-15T00:22:54.236Z,3.3389
2019-05-15T00:23:08.143Z,3.6906
2019-05-15T00:23:13.245Z,3.5330
2019-05-15T00:23:24.276Z,3.6728
2019-05-15T00:23:35.310Z,4.0405
2019-05-15T00:23:43.266Z,3.0248
2019-05-15T00:23:58.495Z,3.7956
2019-05-15T00:24:03.271Z,2.9815
2019-05-15T00:24:14.266Z,2.0743
2019-05-15T00:24:23.269Z,2.4314
2019-05-15T00:24:34.257Z,2.4341
2019-05-15T00:24:43.276Z,2.7641
2019-05-15T00:24:54.260Z,2.5692
2019-05-15T00:25:03.283Z,2.3821
2019-05-15T00:25:14.266Z,2.1386
2019-05-15T00:25:23.268Z,2.0861
2019-05-15T00:25:34.270Z,2.0101
2019-05-15T00:25:43.266Z,2.6427
2019-05-15T00:25:54.270Z,3.3912
2019-05-15T00:26:03.264Z,3.0215
2019-05-15T00:26:14.277Z,2.7751
2019-05-15T00:26:23.250Z,2.0780
2019-05-15T00:26:34.279Z,2.4668
2019-05-15T00:26:45.265Z,4.1840
2019-05-15T00:26:54.250Z,4.4913
2019-05-15T00:27:03.293Z,3.9564
2019-05-15T00:27:14.260Z,3.9622
2019-05-15T00:27:23.731Z,2.9436
2019-05-15T00:27:34.264Z,3.0344
2019-05-15T00:27:45.271Z,2.7702
2019-05-15T00:27:53.281Z,2.5836
2019-05-15T00:28:05.252Z,2.9035
2019-05-15T00:28:13.267Z,2.7963
2019-05-15T00:28:24.279Z,2.3278
2019-05-15T00:28:33.264Z,2.5886
2019-05-15T00:28:44.256Z,4.7609
2019-05-15T00:28:53.264Z,3.8771
2019-05-15T00:29:12.849Z,3.8988
2019-05-15T00:29:16.250Z,3.5380
2019-05-15T00:29:24.285Z,3.6323
2019-05-15T00:29:33.249Z,3.8710
2019-05-15T00:29:44.267Z,3.6067
2019-05-15T00:29:53.271Z,3.2577
2019-05-15T00:30:04.277Z,3.2067
2019-05-15T00:30:13.261Z,2.7504
2019-05-15T00:30:23.689Z,2.0936
2019-05-15T00:30:33.258Z,2.0053
2019-05-15T00:30:44.260Z,2.3556
2019-05-15T00:30:54.186Z,2.3103
2019-05-15T00:31:04.261Z,2.4493
2019-05-15T00:31:13.280Z,2.4473
2019-05-15T00:31:25.138Z,3.0781
2019-05-15T00:31:38.666Z,3.8805
2019-05-15T00:31:43.263Z,3.5908
2019-05-15T00:31:54.273Z,3.6580
2019-05-15T00:32:03.279Z,3.7274
2019-05-15T00:32:14.278Z,3.3386
2019-05-15T00:32:23.254Z,2.9835
2019-05-15T00:32:34.274Z,3.5214
2019-05-15T00:32:43.258Z,3.9780
2019-05-15T00:32:54.257Z,3.6342
2019-05-15T00:33:09.029Z,4.0262
2019-05-15T00:33:14.257Z,3.6293
2019-05-15T00:33:23.255Z,3.1492
2019-05-15T00:33:34.257Z,2.5397
2019-05-15T00:33:43.257Z,2.5296
2019-05-15T00:33:54.275Z,3.0760
2019-05-15T00:34:03.298Z,3.1186
2019-05-15T00:34:14.271Z,3.0536
2019-05-15T00:34:23.268Z,2.9408
2019-05-15T00:34:33.159Z,2.7473
2019-05-15T00:34:43.283Z,2.8433
2019-05-15T00:34:54.258Z,3.1506
2019-05-15T00:35:06.262Z,2.7809
2019-05-15T00:35:15.259Z,3.6055
2019-05-15T00:35:28.025Z,4.0784
2019-05-15T00:35:34.264Z,3.6602
2019-05-15T00:35:44.285Z,3.2270
2019-05-15T00:35:53.254Z,3.0115
2019-05-15T00:36:04.263Z,2.1911
2019-05-15T00:36:13.277Z,2.3707
2019-05-15T00:36:24.286Z,2.5998
2019-05-15T00:36:33.265Z,2.8180
2019-05-15T00:36:44.244Z,2.6830
2019-05-15T00:36:58.274Z,2.2210
2019-05-15T00:37:04.268Z,2.0483
2019-05-15T00:37:13.248Z,2.3402
2019-05-15T00:37:24.274Z,3.1251
2019-05-15T00:37:33.270Z,3.4236
2019-05-15T00:37:44.267Z,3.2218
2019-05-15T00:37:53.277Z,4.0645
2019-05-15T00:38:04.258Z,3.6211
2019-05-15T00:38:13.261Z,3.0963
2019-05-15T00:38:24.275Z,2.9078
2019-05-15T00:38:35.276Z,3.3752
2019-05-15T00:38:44.268Z,2.9398
2019-05-15T00:38:54.297Z,2.4130
2019-05-15T00:39:04.256Z,2.1103
2019-05-15T00:39:13.253Z,2.1335
2019-05-15T00:39:28.374Z,3.8801
2019-05-15T00:39:33.267Z,4.0574
2019-05-15T00:39:45.077Z,3.9386
2019-05-15T00:39:56.363Z,4.1634
2019-05-15T00:40:03.275Z,3.6326
2019-05-15T00:40:18.171Z,3.0835
2019-05-15T00:40:23.246Z,2.7628
2019-05-15T00:40:34.266Z,2.0189
2019-05-15T00:40:43.252Z,2.1247
2019-05-15T00:40:54.253Z,2.2809
2019-05-15T00:41:03.257Z,2.2478
2019-05-15T00:41:14.248Z,2.0754
2019-05-15T00:41:23.270Z,1.6972
2019-05-15T00:41:47.570Z,1.9610
2019-05-15T00:41:51.431Z,2.4770
2019-05-15T00:41:54.774Z,2.6673
2019-05-15T00:42:03.267Z,3.0854
2019-05-15T00:42:14.244Z,3.7218
2019-05-15T00:42:28.459Z,3.4770
2019-05-15T00:42:34.262Z,3.1748
2019-05-15T00:42:43.262Z,2.5698
2019-05-15T00:42:54.262Z,2.2941
2019-05-15T00:43:03.256Z,2.1454
2019-05-15T00:43:14.257Z,2.0621
2019-05-15T00:43:23.251Z,2.0134
2019-05-15T00:43:34.261Z,2.3873
2019-05-15T00:43:43.262Z,2.1339
2019-05-15T00:43:55.304Z,2.1425
2019-05-15T00:44:04.016Z,1.8078
2019-05-15T00:44:13.287Z,1.4547
2019-05-15T00:44:23.260Z,1.7968
2019-05-15T00:44:34.270Z,3.1838
2019-05-15T00:44:46.019Z,3.2764
2019-05-15T00:44:54.844Z,3.0577
2019-05-15T00:45:06.007Z,2.9930
2019-05-15T00:45:13.276Z,2.8437
2019-05-15T00:45:24.274Z,2.3551
2019-05-15T00:45:33.268Z,2.1242
2019-05-15T00:45:44.523Z,1.8963
2019-05-15T00:45:53.252Z,2.4676
2019-05-15T00:46:04.259Z,2.7363
2019-05-15T00:46:16.321Z,2.9950
2019-05-15T00:46:24.256Z,2.6421
2019-05-15T00:46:33.268Z,2.7805
2019-05-15T00:46:44.259Z,3.2136
2019-05-15T00:46:53.265Z,3.7297
2019-05-15T00:47:04.278Z,3.1319
2019-05-15T00:47:13.250Z,2.7121
2019-05-15T00:47:24.268Z,2.3347
2019-05-15T00:47:33.268Z,2.2628
2019-05-15T00:47:44.262Z,2.5865
2019-05-15T00:47:53.247Z,2.7020
2019-05-15T00:48:04.246Z,2.4225
2019-05-15T00:48:13.248Z,2.8337
2019-05-15T00:48:23.165Z,2.7689
2019-05-15T00:48:35.269Z,1.9867
2019-05-15T00:48:44.282Z,1.7200
2019-05-15T00:48:54.157Z,1.4706
2019-05-15T00:49:04.256Z,2.1980
2019-05-15T00:49:15.285Z,3.1775
2019-05-15T00:49:25.048Z,3.2054
2019-05-15T00:49:38.106Z,3.8627
2019-05-15T00:49:43.275Z,3.5001
2019-05-15T00:49:54.284Z,2.7558
2019-05-15T00:50:03.275Z,2.6590
2019-05-15T00:50:14.244Z,2.1264
2019-05-15T00:50:23.256Z,2.0150
2019-05-15T00:50:34.301Z,2.3038
2019-05-15T00:50:43.254Z,3.0172
2019-05-15T00:50:54.282Z,3.3048
2019-05-15T00:51:03.267Z,3.5241
2019-05-15T00:51:14.837Z,3.2902
2019-05-15T00:51:23.266Z,2.7005
2019-05-15T00:51:34.255Z,2.6945
2019-05-15T00:51:43.263Z,2.5471
2019-05-15T00:51:54.267Z,3.0410
2019-05-15T00:52:03.283Z,2.8552
2019-05-15T00:52:14.245Z,4.0500
2019-05-15T00:52:24.695Z,5.1889
2019-05-15T00:52:33.048Z,5.3625
2019-05-15T00:52:44.269Z,5.3712
2019-05-15T00:52:54.268Z,3.7152
2019-05-15T00:53:03.266Z,2.5645
2019-05-15T00:53:14.286Z,2.4997
2019-05-15T00:53:28.116Z,2.5949
2019-05-15T00:53:34.270Z,2.6032
2019-05-15T00:53:48.157Z,2.4333
2019-05-15T00:53:53.254Z,3.3268
2019-05-15T00:54:05.271Z,3.1883
2019-05-15T00:54:13.282Z,2.3554
2019-05-15T00:54:24.264Z,1.8144
2019-05-15T00:54:33.276Z,2.5396
2019-05-15T00:54:44.266Z,2.5529
2019-05-15T00:54:53.262Z,3.1612
2019-05-15T00:55:04.274Z,3.6371
2019-05-15T00:55:19.040Z,2.9845
2019-05-15T00:55:24.267Z,2.7863
2019-05-15T00:55:33.267Z,3.0434
2019-05-15T00:55:44.276Z,3.1886
2019-05-15T00:55:53.270Z,2.9446
2019-05-15T00:56:04.268Z,2.5543
2019-05-15T00:56:13.287Z,2.2905
2019-05-15T00:56:24.264Z,3.2910
2019-05-15T00:56:33.268Z,2.8412
2019-05-15T00:56:44.268Z,3.2869
2019-05-15T00:56:55.288Z,4.2490
2019-05-15T00:57:03.161Z,4.1457
2019-05-15T00:57:13.255Z,3.6430
2019-05-15T00:57:24.293Z,3.2183
2019-05-15T00:57:34.169Z,3.3099
2019-05-15T00:57:44.264Z,2.3212
2019-05-15T00:57:55.252Z,2.1495
2019-05-15T00:58:05.042Z,2.0366
2019-05-15T00:58:14.769Z,2.8699
2019-05-15T00:58:23.311Z,2.8588
2019-05-15T00:58:34.279Z,2.2908
2019-05-15T00:58:43.281Z,1.6631
2019-05-15T00:58:54.253Z,1.2329
2019-05-15T00:59:03.273Z,1.2323
2019-05-15T00:59:24.011Z,2.1717
2019-05-15T00:59:30.014Z,2.1020
2019-05-15T00:59:33.252Z,2.3308
2019-05-15T00:59:43.245Z,2.6515
2019-05-15T00:59:54.279Z,2.7938
2019-05-15T01:00:03.273Z,2.7786
2019-05-15T01:00:14.259Z,2.1144
2019-05-15T01:00:23.267Z,2.1636
2019-05-15T01:00:34.275Z,2.5480
2019-05-15T01:00:43.266Z,2.4895
2019-05-15T01:00:53.261Z,2.6630
2019-05-15T01:01:08.214Z,2.7005
2019-05-15T01:01:14.268Z,3.3952
2019-05-15T01:01:23.278Z,3.5324
2019-05-15T01:01:33.483Z,3.7094
2019-05-15T01:01:44.205Z,3.0010
2019-05-15T01:01:54.267Z,2.1367
2019-05-15T01:02:03.260Z,1.9797
2019-05-15T01:02:14.261Z,2.3567
2019-05-15T01:02:28.526Z,2.6003
2019-05-15T01:02:34.268Z,2.8096
2019-05-15T01:02:45.268Z,3.2829
2019-05-15T01:02:53.258Z,3.1384
2019-05-15T01:03:05.273Z,2.3890
2019-05-15T01:03:13.294Z,2.1025
2019-05-15T01:03:24.269Z,1.7657
2019-05-15T01:03:33.267Z,1.4195
2019-05-15T01:03:44.274Z,2.1586
2019-05-15T01:03:53.259Z,2.2602
2019-05-15T01:04:04.261Z,2.1469
2019-05-15T01:04:13.269Z,1.9978
2019-05-15T01:04:28.752Z,2.3896
2019-05-15T01:04:33.253Z,2.2490
2019-05-15T01:04:44.275Z,1.7779
2019-05-15T01:04:53.246Z,1.7336
2019-05-15T01:05:04.270Z,2.6975
2019-05-15T01:05:13.272Z,2.6285
2019-05-15T01:05:24.284Z,2.4196
2019-05-15T01:05:33.253Z,2.7592
2019-05-15T01:05:44.262Z,2.6924
2019-05-15T01:05:53.268Z,2.4354
2019-05-15T01:06:04.273Z,2.5955
2019-05-15T01:06:13.275Z,2.9912
2019-05-15T01:06:24.266Z,2.8907
2019-05-15T01:06:33.273Z,3.6934
2019-05-15T01:06:43.142Z,3.7080
2019-05-15T01:06:53.249Z,3.6380
2019-05-15T01:07:04.249Z,3.2392
2019-05-15T01:07:14.766Z,3.1293
2019-05-15T01:07:24.278Z,2.4321
2019-05-15T01:07:34.088Z,2.8133
2019-05-15T01:07:43.471Z,2.7810
2019-05-15T01:07:53.263Z,2.2912
2019-05-15T01:08:04.298Z,2.0712
2019-05-15T01:08:13.252Z,2.4180
2019-05-15T01:08:23.796Z,2.8307
2019-05-15T01:08:35.260Z,3.3087
2019-05-15T01:08:44.249Z,2.8761
2019-05-15T01:08:56.192Z,3.0613
2019-05-15T01:09:03.271Z,3.2945
2019-05-15T01:09:15.263Z,3.1027
2019-05-15T01:09:23.260Z,2.4369
2019-05-15T01:09:34.284Z,1.6707
2019-05-15T01:09:43.272Z,2.7388
2019-05-15T01:09:54.245Z,4.0302
2019-05-15T01:10:03.266Z,3.4242
2019-05-15T01:10:14.256Z,2.5385
2019-05-15T01:10:23.274Z,2.5178
2019-05-15T01:10:34.253Z,3.0357
2019-05-15T01:10:43.280Z,2.9561
2019-05-15T01:10:54.267Z,2.2091
2019-05-15T01:11:03.263Z,2.4560
2019-05-15T01:11:14.256Z,2.1347
2019-05-15T01:11:23.289Z,2.3213
2019-05-15T01:11:34.259Z,2.7557
2019-05-15T01:11:43.274Z,2.8809
2019-05-15T01:11:54.284Z,3.5691
2019-05-15T01:12:03.273Z,3.2009
2019-05-15T01:12:14.253Z,3.1158
2019-05-15T01:12:23.269Z,2.8850
2019-05-15T01:12:33.066Z,2.3287
2019-05-15T01:12:43.263Z,1.6299
2019-05-15T01:12:54.275Z,1.8585
2019-05-15T01:13:04.100Z,2.8613
2019-05-15T01:13:14.275Z,3.1301
2019-05-15T01:13:23.276Z,3.5861
2019-05-15T01:13:34.276Z,2.7424
2019-05-15T01:13:43.281Z,2.6118
2019-05-15T01:13:55.242Z,2.8158
2019-05-15T01:14:03.264Z,2.9416
2019-05-15T01:14:14.268Z,3.4820
2019-05-15T01:14:25.274Z,3.0992
2019-05-15T01:14:33.275Z,3.2241
2019-05-15T01:14:45.284Z,2.9221
2019-05-15T01:14:53.286Z,3.2635
2019-05-15T01:15:04.273Z,2.8096
2019-05-15T01:15:13.277Z,1.7214
2019-05-15T01:15:24.293Z,1.9987
2019-05-15T01:15:33.281Z,2.6980
2019-05-15T01:15:44.255Z,2.4352
2019-05-15T01:15:53.265Z,3.0900
2019-05-15T01:16:04.281Z,2.9544
2019-05-15T01:16:13.401Z,2.8579
2019-05-15T01:16:24.290Z,2.8792
2019-05-15T01:16:33.267Z,2.7856
2019-05-15T01:16:44.274Z,2.5218
2019-05-15T01:16:53.262Z,2.5402
2019-05-15T01:17:04.261Z,3.0788
2019-05-15T01:17:13.275Z,3.2546
2019-05-15T01:17:24.264Z,3.2720
2019-05-15T01:17:33.250Z,2.7512
2019-05-15T01:17:44.281Z,2.3799
2019-05-15T01:17:53.262Z,2.1790
2019-05-15T01:18:04.248Z,2.2458
2019-05-15T01:18:14.157Z,2.0434
2019-05-15T01:18:23.331Z,2.2464
2019-05-15T01:18:33.247Z,2.5128
2019-05-15T01:18:45.157Z,3.2304
2019-05-15T01:18:53.284Z,3.7083
2019-05-15T01:19:04.271Z,3.0335
2019-05-15T01:19:15.032Z,3.2634
2019-05-15T01:19:24.329Z,2.6458
2019-05-15T01:19:35.281Z,2.7481
2019-05-15T01:19:44.254Z,3.2037
2019-05-15T01:19:55.277Z,3.9719
2019-05-15T01:20:03.271Z,3.3674
2019-05-15T01:20:15.278Z,2.6833
2019-05-15T01:20:23.268Z,2.6897
2019-05-15T01:20:34.286Z,2.3739
2019-05-15T01:20:43.253Z,2.0165
2019-05-15T01:20:54.256Z,1.8593
2019-05-15T01:21:03.270Z,2.0511
2019-05-15T01:21:14.262Z,2.6145
2019-05-15T01:21:27.939Z,1.7697
2019-05-15T01:21:34.251Z,1.6831
2019-05-15T01:21:43.275Z,2.2134
2019-05-15T01:21:54.272Z,1.9788
2019-05-15T01:22:03.272Z,2.0284
2019-05-15T01:22:14.261Z,2.3034
2019-05-15T01:22:23.278Z,2.2851
2019-05-15T01:22:33.937Z,2.2387
2019-05-15T01:22:43.276Z,1.9220
2019-05-15T01:22:54.278Z,2.0508
2019-05-15T01:23:02.710Z,2.6101
2019-05-15T01:23:18.887Z,2.1868
2019-05-15T01:23:23.259Z,2.1215
2019-05-15T01:23:34.268Z,2.3253
2019-05-15T01:23:43.261Z,2.5337
2019-05-15T01:23:54.261Z,3.3924
2019-05-15T01:24:03.253Z,3.0497
2019-05-15T01:24:18.986Z,2.8290
2019-05-15T01:24:23.260Z,3.0018
2019-05-15T01:24:34.277Z,2.9656
2019-05-15T01:24:44.123Z,3.0085
2019-05-15T01:24:54.285Z,3.2711
2019-05-15T01:25:03.257Z,2.7226
2019-05-15T01:25:14.279Z,2.1295
2019-05-15T01:25:23.273Z,1.9374
2019-05-15T01:25:35.209Z,1.6779
2019-05-15T01:25:45.258Z,2.5178
2019-05-15T01:25:54.283Z,2.4733
2019-05-15T01:26:08.330Z,1.8881
2019-05-15T01:26:14.259Z,1.5336
2019-05-15T01:26:25.285Z,1.2220
2019-05-15T01:26:33.272Z,2.1484
2019-05-15T01:26:46.173Z,1.6773
2019-05-15T01:26:53.145Z,1.8195
2019-05-15T01:27:04.266Z,1.8958
2019-05-15T01:27:13.275Z,1.7469
2019-05-15T01:27:24.251Z,1.5753
2019-05-15T01:27:33.297Z,2.0342
2019-05-15T01:27:44.286Z,2.2670
2019-05-15T01:27:53.269Z,2.2440
2019-05-15T01:28:04.274Z,2.2058
2019-05-15T01:28:13.259Z,2.1847
2019-05-15T01:28:24.267Z,1.6077
2019-05-15T01:28:33.297Z,2.3721
2019-05-15T01:28:44.267Z,2.0191
2019-05-15T01:28:53.251Z,2.2013
2019-05-15T01:29:04.280Z,2.0182
2019-05-15T01:29:13.302Z,1.5752
2019-05-15T01:29:36.515Z,1.3854
2019-05-15T01:29:43.817Z,2.5634
2019-05-15T01:29:45.161Z,2.8768
2019-05-15T01:29:53.274Z,2.9017
2019-05-15T01:30:03.124Z,3.2393
2019-05-15T01:30:13.286Z,2.4619
2019-05-15T01:30:24.261Z,2.7730
2019-05-15T01:30:33.250Z,2.8038
2019-05-15T01:30:45.150Z,3.4126
2019-05-15T01:30:54.351Z,3.4844
2019-05-15T01:31:05.091Z,3.1308
2019-05-15T01:31:13.251Z,3.0833
2019-05-15T01:31:24.274Z,2.9515
2019-05-15T01:31:35.256Z,3.8453
2019-05-15T01:31:45.117Z,4.7456
2019-05-15T01:31:54.346Z,4.1611
2019-05-15T01:32:03.267Z,3.5055
2019-05-15T01:32:15.264Z,3.1633
2019-05-15T01:32:23.278Z,2.7299
2019-05-15T01:32:34.274Z,3.4347
2019-05-15T01:32:43.264Z,3.5218
2019-05-15T01:32:54.266Z,2.8154
2019-05-15T01:33:03.282Z,2.4665
2019-05-15T01:33:14.271Z,2.6689
2019-05-15T01:33:23.256Z,2.2835
2019-05-15T01:33:34.258Z,2.2569
2019-05-15T01:33:43.258Z,2.4030
2019-05-15T01:33:54.272Z,1.9247
2019-05-15T01:34:03.309Z,1.9098
2019-05-15T01:34:13.897Z,2.1694
2019-05-15T01:34:23.270Z,3.0574
2019-05-15T01:34:34.279Z,3.1597
2019-05-15T01:34:43.260Z,2.7276
2019-05-15T01:34:54.262Z,2.2396
2019-05-15T01:35:03.823Z,2.3393
2019-05-15T01:35:14.261Z,2.6087
2019-05-15T01:35:23.259Z,2.1764
2019-05-15T01:35:34.288Z,2.1364
2019-05-15T01:35:43.240Z,2.3242
2019-05-15T01:35:54.271Z,2.3943
2019-05-15T01:36:03.291Z,2.9164
2019-05-15T01:36:13.156Z,4.6127
2019-05-15T01:36:23.276Z,4.7014
2019-05-15T01:36:34.279Z,3.3098
2019-05-15T01:36:43.247Z,2.8365
2019-05-15T01:36:55.751Z,3.1479
2019-05-15T01:37:05.272Z,4.0316
2019-05-15T01:37:14.273Z,3.6071
2019-05-15T01:37:25.262Z,2.7217
2019-05-15T01:37:33.259Z,2.3080
2019-05-15T01:37:45.273Z,2.1901
2019-05-15T01:37:53.274Z,3.8961
2019-05-15T01:38:04.282Z,3.8829
2019-05-15T01:38:13.268Z,3.1196
2019-05-15T01:38:24.258Z,2.7612
2019-05-15T01:38:33.262Z,2.6394
2019-05-15T01:38:44.272Z,2.4445
2019-05-15T01:38:53.285Z,2.8992
2019-05-15T01:39:04.315Z,3.8096
2019-05-15T01:39:13.267Z,4.0215
2019-05-15T01:39:24.257Z,3.4092
2019-05-15T01:39:33.287Z,3.2364
2019-05-15T01:39:44.282Z,3.3375
2019-05-15T01:39:53.252Z,3.2011
2019-05-15T01:40:04.256Z,2.9821
2019-05-15T01:40:13.248Z,3.6989
2019-05-15T01:40:24.264Z,4.4758
2019-05-15T01:40:33.265Z,4.7957
2019-05-15T01:40:43.757Z,4.0406
2019-05-15T01:40:53.261Z,3.4402
2019-05-15T01:41:04.249Z,2.9598
2019-05-15T01:41:14.137Z,3.0466
2019-05-15T01:41:24.263Z,3.3765
2019-05-15T01:41:33.269Z,3.4194
2019-05-15T01:41:43.470Z,2.6575
2019-05-15T01:41:53.310Z,2.7649
2019-05-15T01:42:05.391Z,2.8745
2019-05-15T01:42:13.263Z,2.8017
2019-05-15T01:42:24.256Z,2.3108
2019-05-15T01:42:33.748Z,1.6727
2019-05-15T01:42:44.258Z,2.2886
2019-05-15T01:42:55.265Z,3.6866
2019-05-15T01:43:03.255Z,3.7174
2019-05-15T01:43:14.285Z,3.1040
2019-05-15T01:43:23.275Z,2.6817
2019-05-15T01:43:34.309Z,2.7058
2019-05-15T01:43:43.268Z,3.6313
2019-05-15T01:43:54.261Z,4.2639
2019-05-15T01:44:03.275Z,3.9696
2019-05-15T01:44:14.275Z,3.7712
2019-05-15T01:44:23.283Z,3.1960
2019-05-15T01:44:34.278Z,3.7240
2019-05-15T01:44:43.308Z,3.7372
2019-05-15T01:44:54.288Z,2.8975
2019-05-15T01:45:03.278Z,3.5894
2019-05-15T01:45:14.289Z,3.7281
2019-05-15T01:45:23.292Z,3.9234
2019-05-15T01:45:34.287Z,3.6368
2019-05-15T01:45:43.274Z,2.8299
2019-05-15T01:45:54.279Z,2.4376
2019-05-15T01:46:03.262Z,1.9941
2019-05-15T01:46:14.261Z,1.8130
2019-05-15T01:46:24.712Z,1.8237
2019-05-15T01:46:33.319Z,1.6571
2019-05-15T01:46:43.270Z,1.9639
2019-05-15T01:46:53.149Z,2.1975
2019-05-15T01:47:03.262Z,2.1342
2019-05-15T01:47:14.278Z,3.7465
2019-05-15T01:47:25.269Z,3.5076
2019-05-15T01:47:34.291Z,2.8147
2019-05-15T01:47:45.309Z,2.9304
2019-05-15T01:47:53.274Z,2.4071
2019-05-15T01:48:05.273Z,1.9534
2019-05-15T01:48:13.277Z,1.5726
2019-05-15T01:48:24.274Z,1.8118
2019-05-15T01:48:33.263Z,2.3451
2019-05-15T01:48:44.287Z,3.2841
2019-05-15T01:48:53.255Z,4.4980
2019-05-15T01:49:04.262Z,3.6787
2019-05-15T01:49:13.284Z,3.0197
2019-05-15T01:49:24.264Z,3.2952
2019-05-15T01:49:33.256Z,3.4242
2019-05-15T01:49:44.277Z,3.7871
2019-05-15T01:49:53.252Z,2.9413
2019-05-15T01:50:04.287Z,3.2269
2019-05-15T01:50:13.260Z,3.2390
2019-05-15T01:50:24.272Z,3.9103
2019-05-15T01:50:33.279Z,3.3725
2019-05-15T01:50:44.267Z,3.5143
2019-05-15T01:50:53.264Z,3.7093
2019-05-15T01:51:04.267Z,3.6739
2019-05-15T01:51:13.256Z,3.2064
2019-05-15T01:51:24.281Z,3.1667
2019-05-15T01:51:33.257Z,2.6242
2019-05-15T01:51:47.818Z,1.9673
2019-05-15T01:51:53.260Z,1.5969
2019-05-15T01:52:03.106Z,1.3305
2019-05-15T01:52:14.289Z,1.2528
2019-05-15T01:52:24.286Z,2.3612
2019-05-15T01:52:33.261Z,2.8961
2019-05-15T01:52:44.262Z,2.9827
2019-05-15T01:52:58.479Z,2.9179
2019-05-15T01:53:04.269Z,3.1599
2019-05-15T01:53:16.089Z,2.9905
2019-05-15T01:53:23.254Z,2.5304
2019-05-15T01:53:35.756Z,2.8012
2019-05-15T01:53:43.279Z,2.3929
2019-05-15T01:53:55.247Z,2.2325
2019-05-15T01:54:03.269Z,1.9774
2019-05-15T01:54:14.289Z,1.9893
2019-05-15T01:54:23.284Z,2.4882
2019-05-15T01:54:34.259Z,2.5651
2019-05-15T01:54:43.249Z,3.4838
2019-05-15T01:54:58.238Z,2.8739
2019-05-15T01:55:08.971Z,2.9974
2019-05-15T01:55:14.264Z,2.6553
2019-05-15T01:55:23.265Z,3.1259
2019-05-15T01:55:34.275Z,3.5283
2019-05-15T01:55:48.332Z,2.4044
2019-05-15T01:55:54.279Z,2.0037
2019-05-15T01:56:03.242Z,1.9705
2019-05-15T01:56:14.269Z,2.1878
2019-05-15T01:56:23.281Z,3.2752
2019-05-15T01:56:34.273Z,3.9656
2019-05-15T01:56:43.284Z,3.2384
2019-05-15T01:56:54.269Z,2.9283
2019-05-15T01:57:03.273Z,3.1782
2019-05-15T01:57:14.280Z,3.2817
2019-05-15T01:57:23.244Z,3.3334
2019-05-15T01:57:33.119Z,3.3372
2019-05-15T01:57:43.281Z,3.0027
2019-05-15T01:57:54.271Z,2.6539
2019-05-15T01:58:03.255Z,2.7035
2019-05-15T01:58:15.162Z,3.4670
2019-05-15T01:58:25.264Z,3.8813
2019-05-15T01:58:34.268Z,3.7167
2019-05-15T01:58:45.264Z,3.8480
2019-05-15T01:58:53.270Z,4.0707
2019-05-15T01:59:04.276Z,4.0745
2019-05-15T01:59:13.262Z,4.2149
2019-05-15T01:59:24.243Z,4.2119
2019-05-15T01:59:33.257Z,2.8992
2019-05-15T01:59:56.540Z,1.7771
2019-05-15T01:59:57.407Z,1.5586
2019-05-15T02:00:03.309Z,2.0208
2019-05-15T02:00:13.275Z,2.3692
2019-05-15T02:00:24.249Z,2.0935
2019-05-15T02:00:33.249Z,1.9785
2019-05-15T02:00:44.281Z,2.2932
2019-05-15T02:00:52.706Z,2.6202
2019-05-15T02:01:04.275Z,2.9575
2019-05-15T02:01:13.335Z,3.1724
2019-05-15T02:01:23.705Z,3.1449
2019-05-15T02:01:33.274Z,3.4089
2019-05-15T02:01:44.253Z,3.0148
2019-05-15T02:01:53.259Z,3.0463
2019-05-15T02:02:03.141Z,2.9427
2019-05-15T02:02:13.261Z,2.4432
2019-05-15T02:02:24.289Z,2.2208
2019-05-15T02:02:34.101Z,2.8399
2019-05-15T02:02:44.245Z,3.0852
2019-05-15T02:02:55.257Z,3.4351
2019-05-15T02:03:05.044Z,3.6786
2019-05-15T02:03:13.255Z,3.2778
2019-05-15T02:03:24.248Z,3.1189
2019-05-15T02:03:35.518Z,3.1293
2019-05-15T02:03:43.272Z,2.9050
2019-05-15T02:03:54.284Z,3.1042
2019-05-15T02:04:03.253Z,3.6681
2019-05-15T02:04:14.266Z,3.1775
2019-05-15T02:04:23.272Z,3.4754
2019-05-15T02:04:34.276Z,3.7543
2019-05-15T02:04:43.275Z,3.0830